sensor_id;sensor_type;location;lat;lon;timestamp;P1;durP1;ratioP1;P2;durP2;ratioP2
19780;SDS011;10050;55.492;13.506;2023-08-07T00:00:28;1.63;;;0.67;;
19780;SDS011;10050;55.492;13.506;2023-08-07T00:02:54;1.03;;;0.50;;
19780;SDS011;10050;55.492;13.506;2023-08-07T00:05:22;1.37;;;0.60;;
19780;SDS011;10050;55.492;13.506;2023-08-07T00:07:48;0.50;;;0.50;;
19780;SDS011;10050;55.492;13.506;2023-08-07T00:10:14;0.53;;;0.53;;
19780;SDS011;10050;55.492;13.506;2023-08-07T00:12:40;0.53;;;0.53;;
19780;SDS011;10050;55.492;13.506;2023-08-07T00:15:06;2.77;;;0.60;;
19780;SDS011;10050;55.492;13.506;2023-08-07T00:17:32;1.07;;;0.53;;
19780;SDS011;10050;55.492;13.506;2023-08-07T00:19:58;0.83;;;0.40;;
19780;SDS011;10050;55.492;13.506;2023-08-07T00:22:23;0.60;;;0.60;;
19780;SDS011;10050;55.492;13.506;2023-08-07T00:24:50;0.50;;;0.50;;
19780;SDS011;10050;55.492;13.506;2023-08-07T00:27:19;0.83;;;0.40;;
19780;SDS011;10050;55.492;13.506;2023-08-07T00:29:44;0.63;;;0.63;;
19780;SDS011;10050;55.492;13.506;2023-08-07T00:32:11;0.53;;;0.53;;
19780;SDS011;10050;55.492;13.506;2023-08-07T00:34:38;0.50;;;0.50;;
19780;SDS011;10050;55.492;13.506;2023-08-07T00:37:06;0.60;;;0.60;;
19780;SDS011;10050;55.492;13.506;2023-08-07T00:39:35;2.73;;;0.60;;
19780;SDS011;10050;55.492;13.506;2023-08-07T00:42:10;0.97;;;0.47;;
19780;SDS011;10050;55.492;13.506;2023-08-07T00:44:36;3.67;;;0.73;;
19780;SDS011;10050;55.492;13.506;2023-08-07T00:47:02;1.57;;;0.60;;
19780;SDS011;10050;55.492;13.506;2023-08-07T00:49:28;2.03;;;0.80;;
19780;SDS011;10050;55.492;13.506;2023-08-07T00:51:59;0.50;;;0.50;;
19780;SDS011;10050;55.492;13.506;2023-08-07T00:54:27;1.07;;;0.60;;
19780;SDS011;10050;55.492;13.506;2023-08-07T00:56:53;0.80;;;0.47;;
19780;SDS011;10050;55.492;13.506;2023-08-07T00:59:19;1.87;;;0.60;;
19780;SDS011;10050;55.492;13.506;2023-08-07T01:01:46;0.60;;;0.47;;
19780;SDS011;10050;55.492;13.506;2023-08-07T01:04:14;0.80;;;0.53;;
19780;SDS011;10050;55.492;13.506;2023-08-07T01:06:40;1.83;;;0.40;;
19780;SDS011;10050;55.492;13.506;2023-08-07T01:09:06;0.57;;;0.57;;
19780;SDS011;10050;55.492;13.506;2023-08-07T01:16:48;1.17;;;0.60;;
19780;SDS011;10050;55.492;13.506;2023-08-07T01:19:28;2.33;;;0.60;;
19780;SDS011;10050;55.492;13.506;2023-08-07T01:24:53;0.93;;;0.60;;
19780;SDS011;10050;55.492;13.506;2023-08-07T01:35:49;0.40;;;0.40;;
19780;SDS011;10050;55.492;13.506;2023-08-07T01:38:26;1.47;;;0.60;;
19780;SDS011;10050;55.492;13.506;2023-08-07T01:40:53;0.47;;;0.37;;
19780;SDS011;10050;55.492;13.506;2023-08-07T01:43:22;0.53;;;0.53;;
19780;SDS011;10050;55.492;13.506;2023-08-07T01:45:52;3.00;;;0.67;;
19780;SDS011;10050;55.492;13.506;2023-08-07T01:48:32;0.80;;;0.40;;
19780;SDS011;10050;55.492;13.506;2023-08-07T01:51:01;0.50;;;0.50;;
19780;SDS011;10050;55.492;13.506;2023-08-07T01:53:28;0.67;;;0.50;;
19780;SDS011;10050;55.492;13.506;2023-08-07T01:55:54;0.63;;;0.50;;
19780;SDS011;10050;55.492;13.506;2023-08-07T01:58:19;1.57;;;0.43;;
19780;SDS011;10050;55.492;13.506;2023-08-07T02:00:47;1.73;;;0.50;;
19780;SDS011;10050;55.492;13.506;2023-08-07T02:03:14;1.00;;;0.50;;
19780;SDS011;10050;55.492;13.506;2023-08-07T02:05:39;0.60;;;0.60;;
19780;SDS011;10050;55.492;13.506;2023-08-07T02:08:05;1.03;;;0.47;;
19780;SDS011;10050;55.492;13.506;2023-08-07T02:10:31;1.07;;;0.60;;
19780;SDS011;10050;55.492;13.506;2023-08-07T02:12:58;0.30;;;0.30;;
19780;SDS011;10050;55.492;13.506;2023-08-07T02:15:27;0.63;;;0.63;;
19780;SDS011;10050;55.492;13.506;2023-08-07T02:17:53;0.50;;;0.50;;
19780;SDS011;10050;55.492;13.506;2023-08-07T02:20:19;0.97;;;0.50;;
19780;SDS011;10050;55.492;13.506;2023-08-07T02:22:45;0.43;;;0.40;;
19780;SDS011;10050;55.492;13.506;2023-08-07T02:25:11;0.50;;;0.50;;
19780;SDS011;10050;55.492;13.506;2023-08-07T02:27:38;0.40;;;0.40;;
19780;SDS011;10050;55.492;13.506;2023-08-07T02:30:04;0.63;;;0.43;;
19780;SDS011;10050;55.492;13.506;2023-08-07T02:32:31;0.80;;;0.60;;
19780;SDS011;10050;55.492;13.506;2023-08-07T02:34:57;0.40;;;0.40;;
19780;SDS011;10050;55.492;13.506;2023-08-07T02:37:22;1.70;;;0.50;;
19780;SDS011;10050;55.492;13.506;2023-08-07T02:39:48;0.73;;;0.50;;
19780;SDS011;10050;55.492;13.506;2023-08-07T02:42:14;0.63;;;0.60;;
19780;SDS011;10050;55.492;13.506;2023-08-07T02:44:43;0.60;;;0.60;;
19780;SDS011;10050;55.492;13.506;2023-08-07T02:47:15;1.77;;;0.50;;
19780;SDS011;10050;55.492;13.506;2023-08-07T02:49:43;0.83;;;0.40;;
19780;SDS011;10050;55.492;13.506;2023-08-07T02:52:15;0.70;;;0.60;;
19780;SDS011;10050;55.492;13.506;2023-08-07T02:54:40;0.53;;;0.53;;
19780;SDS011;10050;55.492;13.506;2023-08-07T02:57:07;0.97;;;0.50;;
19780;SDS011;10050;55.492;13.506;2023-08-07T02:59:36;1.03;;;0.70;;
19780;SDS011;10050;55.492;13.506;2023-08-07T03:02:04;0.80;;;0.60;;
19780;SDS011;10050;55.492;13.506;2023-08-07T03:04:30;1.67;;;0.80;;
19780;SDS011;10050;55.492;13.506;2023-08-07T03:06:56;1.00;;;0.50;;
19780;SDS011;10050;55.492;13.506;2023-08-07T03:09:22;0.70;;;0.60;;
19780;SDS011;10050;55.492;13.506;2023-08-07T03:11:49;2.83;;;0.90;;
19780;SDS011;10050;55.492;13.506;2023-08-07T03:14:16;1.17;;;0.67;;
19780;SDS011;10050;55.492;13.506;2023-08-07T03:16:48;1.03;;;0.50;;
19780;SDS011;10050;55.492;13.506;2023-08-07T03:19:15;1.67;;;0.73;;
19780;SDS011;10050;55.492;13.506;2023-08-07T03:21:49;1.37;;;0.80;;
19780;SDS011;10050;55.492;13.506;2023-08-07T03:24:15;1.93;;;0.70;;
19780;SDS011;10050;55.492;13.506;2023-08-07T03:26:40;2.23;;;0.73;;
19780;SDS011;10050;55.492;13.506;2023-08-07T03:29:06;2.40;;;0.90;;
19780;SDS011;10050;55.492;13.506;2023-08-07T03:31:32;2.93;;;0.87;;
19780;SDS011;10050;55.492;13.506;2023-08-07T03:33:57;3.30;;;1.00;;
19780;SDS011;10050;55.492;13.506;2023-08-07T03:36:23;3.83;;;1.07;;
19780;SDS011;10050;55.492;13.506;2023-08-07T03:38:49;1.77;;;0.67;;
19780;SDS011;10050;55.492;13.506;2023-08-07T03:41:19;3.80;;;1.00;;
19780;SDS011;10050;55.492;13.506;2023-08-07T03:43:47;1.93;;;0.80;;
19780;SDS011;10050;55.492;13.506;2023-08-07T03:46:15;2.30;;;1.13;;
19780;SDS011;10050;55.492;13.506;2023-08-07T03:48:47;2.80;;;0.80;;
19780;SDS011;10050;55.492;13.506;2023-08-07T03:51:16;3.63;;;0.73;;
19780;SDS011;10050;55.492;13.506;2023-08-07T03:53:52;2.30;;;0.87;;
19780;SDS011;10050;55.492;13.506;2023-08-07T03:56:33;1.53;;;0.57;;
19780;SDS011;10050;55.492;13.506;2023-08-07T03:59:06;3.43;;;0.63;;
19780;SDS011;10050;55.492;13.506;2023-08-07T04:01:32;1.07;;;0.60;;
19780;SDS011;10050;55.492;13.506;2023-08-07T04:03:59;3.70;;;1.43;;
19780;SDS011;10050;55.492;13.506;2023-08-07T04:06:26;2.03;;;0.60;;
19780;SDS011;10050;55.492;13.506;2023-08-07T04:08:52;1.37;;;0.70;;
19780;SDS011;10050;55.492;13.506;2023-08-07T04:11:18;2.40;;;0.87;;
19780;SDS011;10050;55.492;13.506;2023-08-07T04:13:45;2.93;;;0.60;;
19780;SDS011;10050;55.492;13.506;2023-08-07T04:16:15;2.70;;;0.60;;
19780;SDS011;10050;55.492;13.506;2023-08-07T04:18:41;2.03;;;1.10;;
19780;SDS011;10050;55.492;13.506;2023-08-07T04:21:07;5.83;;;0.97;;
19780;SDS011;10050;55.492;13.506;2023-08-07T04:23:33;3.23;;;1.00;;
19780;SDS011;10050;55.492;13.506;2023-08-07T04:25:59;3.87;;;1.03;;
19780;SDS011;10050;55.492;13.506;2023-08-07T04:28:25;4.53;;;0.70;;
19780;SDS011;10050;55.492;13.506;2023-08-07T04:30:52;3.53;;;0.70;;
19780;SDS011;10050;55.492;13.506;2023-08-07T04:33:18;1.43;;;0.87;;
19780;SDS011;10050;55.492;13.506;2023-08-07T04:35:47;0.50;;;0.50;;
19780;SDS011;10050;55.492;13.506;2023-08-07T04:38:13;0.70;;;0.50;;
19780;SDS011;10050;55.492;13.506;2023-08-07T04:40:49;0.87;;;0.50;;
19780;SDS011;10050;55.492;13.506;2023-08-07T04:43:16;2.53;;;0.70;;
19780;SDS011;10050;55.492;13.506;2023-08-07T04:45:46;4.73;;;1.00;;
19780;SDS011;10050;55.492;13.506;2023-08-07T04:48:14;3.67;;;1.10;;
19780;SDS011;10050;55.492;13.506;2023-08-07T04:50:51;1.43;;;0.60;;
19780;SDS011;10050;55.492;13.506;2023-08-07T04:53:19;1.10;;;0.70;;
19780;SDS011;10050;55.492;13.506;2023-08-07T04:55:51;3.30;;;0.80;;
19780;SDS011;10050;55.492;13.506;2023-08-07T04:58:20;4.60;;;0.80;;
19780;SDS011;10050;55.492;13.506;2023-08-07T05:00:53;3.43;;;0.90;;
19780;SDS011;10050;55.492;13.506;2023-08-07T05:03:25;2.97;;;0.70;;
19780;SDS011;10050;55.492;13.506;2023-08-07T05:05:57;4.00;;;0.70;;
19780;SDS011;10050;55.492;13.506;2023-08-07T05:08:24;3.37;;;0.80;;
19780;SDS011;10050;55.492;13.506;2023-08-07T05:10:50;2.00;;;0.80;;
19780;SDS011;10050;55.492;13.506;2023-08-07T05:13:16;3.00;;;0.67;;
19780;SDS011;10050;55.492;13.506;2023-08-07T05:15:43;0.60;;;0.60;;
19780;SDS011;10050;55.492;13.506;2023-08-07T05:18:09;0.73;;;0.40;;
19780;SDS011;10050;55.492;13.506;2023-08-07T05:20:34;1.63;;;0.50;;
19780;SDS011;10050;55.492;13.506;2023-08-07T05:23:00;1.07;;;0.60;;
19780;SDS011;10050;55.492;13.506;2023-08-07T05:25:26;2.63;;;0.70;;
19780;SDS011;10050;55.492;13.506;2023-08-07T05:27:52;2.33;;;0.80;;
19780;SDS011;10050;55.492;13.506;2023-08-07T05:30:17;3.10;;;1.17;;
19780;SDS011;10050;55.492;13.506;2023-08-07T05:32:46;2.23;;;0.80;;
19780;SDS011;10050;55.492;13.506;2023-08-07T05:35:12;2.20;;;0.70;;
19780;SDS011;10050;55.492;13.506;2023-08-07T05:37:38;2.63;;;0.80;;
19780;SDS011;10050;55.492;13.506;2023-08-07T05:40:04;3.10;;;0.80;;
19780;SDS011;10050;55.492;13.506;2023-08-07T05:42:31;2.77;;;0.60;;
19780;SDS011;10050;55.492;13.506;2023-08-07T05:44:57;0.90;;;0.60;;
19780;SDS011;10050;55.492;13.506;2023-08-07T05:47:23;1.47;;;0.70;;
19780;SDS011;10050;55.492;13.506;2023-08-07T05:49:49;2.33;;;1.17;;
19780;SDS011;10050;55.492;13.506;2023-08-07T05:52:17;1.80;;;0.80;;
19780;SDS011;10050;55.492;13.506;2023-08-07T05:54:43;2.57;;;0.90;;
19780;SDS011;10050;55.492;13.506;2023-08-07T05:57:09;2.40;;;0.83;;
19780;SDS011;10050;55.492;13.506;2023-08-07T05:59:37;1.60;;;0.77;;
19780;SDS011;10050;55.492;13.506;2023-08-07T06:02:05;2.73;;;0.93;;
19780;SDS011;10050;55.492;13.506;2023-08-07T06:04:32;2.00;;;1.10;;
19780;SDS011;10050;55.492;13.506;2023-08-07T06:06:59;2.60;;;1.10;;
19780;SDS011;10050;55.492;13.506;2023-08-07T06:09:25;2.03;;;1.00;;
19780;SDS011;10050;55.492;13.506;2023-08-07T06:11:51;2.23;;;0.93;;
19780;SDS011;10050;55.492;13.506;2023-08-07T06:14:20;2.80;;;1.00;;
19780;SDS011;10050;55.492;13.506;2023-08-07T06:16:46;2.40;;;1.03;;
19780;SDS011;10050;55.492;13.506;2023-08-07T06:19:12;2.37;;;0.93;;
19780;SDS011;10050;55.492;13.506;2023-08-07T06:21:38;4.00;;;1.30;;
19780;SDS011;10050;55.492;13.506;2023-08-07T06:24:04;4.00;;;1.60;;
19780;SDS011;10050;55.492;13.506;2023-08-07T06:26:32;3.17;;;1.20;;
19780;SDS011;10050;55.492;13.506;2023-08-07T06:29:02;3.13;;;1.33;;
19780;SDS011;10050;55.492;13.506;2023-08-07T06:31:27;1.60;;;1.17;;
19780;SDS011;10050;55.492;13.506;2023-08-07T06:33:53;2.63;;;1.23;;
19780;SDS011;10050;55.492;13.506;2023-08-07T06:36:20;4.00;;;1.67;;
19780;SDS011;10050;55.492;13.506;2023-08-07T06:38:46;2.47;;;1.20;;
19780;SDS011;10050;55.492;13.506;2023-08-07T06:41:12;2.57;;;1.20;;
19780;SDS011;10050;55.492;13.506;2023-08-07T06:43:38;2.60;;;1.30;;
19780;SDS011;10050;55.492;13.506;2023-08-07T06:46:04;3.33;;;1.20;;
19780;SDS011;10050;55.492;13.506;2023-08-07T06:48:30;2.97;;;1.03;;
19780;SDS011;10050;55.492;13.506;2023-08-07T06:50:57;1.50;;;1.00;;
19780;SDS011;10050;55.492;13.506;2023-08-07T06:53:23;2.70;;;0.90;;
19780;SDS011;10050;55.492;13.506;2023-08-07T06:55:49;2.70;;;0.63;;
19780;SDS011;10050;55.492;13.506;2023-08-07T06:58:14;2.73;;;0.50;;
19780;SDS011;10050;55.492;13.506;2023-08-07T07:00:40;1.07;;;0.50;;
19780;SDS011;10050;55.492;13.506;2023-08-07T07:03:06;0.70;;;0.50;;
19780;SDS011;10050;55.492;13.506;2023-08-07T07:05:33;0.77;;;0.60;;
19780;SDS011;10050;55.492;13.506;2023-08-07T07:08:01;0.80;;;0.60;;
19780;SDS011;10050;55.492;13.506;2023-08-07T07:10:28;1.17;;;0.50;;
19780;SDS011;10050;55.492;13.506;2023-08-07T07:12:54;0.97;;;0.60;;
19780;SDS011;10050;55.492;13.506;2023-08-07T07:15:20;1.37;;;0.60;;
19780;SDS011;10050;55.492;13.506;2023-08-07T07:17:46;0.50;;;0.50;;
19780;SDS011;10050;55.492;13.506;2023-08-07T07:20:14;1.03;;;0.53;;
19780;SDS011;10050;55.492;13.506;2023-08-07T07:22:46;3.03;;;0.73;;
19780;SDS011;10050;55.492;13.506;2023-08-07T07:25:13;1.63;;;1.00;;
19780;SDS011;10050;55.492;13.506;2023-08-07T07:27:41;0.80;;;0.70;;
19780;SDS011;10050;55.492;13.506;2023-08-07T07:30:07;1.23;;;0.80;;
19780;SDS011;10050;55.492;13.506;2023-08-07T07:32:34;2.83;;;1.07;;
19780;SDS011;10050;55.492;13.506;2023-08-07T07:35:00;1.33;;;0.90;;
19780;SDS011;10050;55.492;13.506;2023-08-07T07:37:30;2.03;;;1.00;;
19780;SDS011;10050;55.492;13.506;2023-08-07T07:39:56;1.03;;;0.83;;
19780;SDS011;10050;55.492;13.506;2023-08-07T07:42:23;4.77;;;1.20;;
19780;SDS011;10050;55.492;13.506;2023-08-07T07:44:49;0.93;;;0.90;;
19780;SDS011;10050;55.492;13.506;2023-08-07T07:47:16;2.10;;;0.87;;
19780;SDS011;10050;55.492;13.506;2023-08-07T07:49:45;3.70;;;1.23;;
19780;SDS011;10050;55.492;13.506;2023-08-07T07:52:15;2.70;;;1.00;;
19780;SDS011;10050;55.492;13.506;2023-08-07T07:54:40;4.97;;;1.10;;
19780;SDS011;10050;55.492;13.506;2023-08-07T07:57:06;1.70;;;0.93;;
19780;SDS011;10050;55.492;13.506;2023-08-07T07:59:32;1.13;;;0.80;;
19780;SDS011;10050;55.492;13.506;2023-08-07T08:01:58;1.80;;;0.60;;
19780;SDS011;10050;55.492;13.506;2023-08-07T08:04:24;2.50;;;0.90;;
19780;SDS011;10050;55.492;13.506;2023-08-07T08:06:51;1.40;;;0.90;;
19780;SDS011;10050;55.492;13.506;2023-08-07T08:09:17;1.23;;;1.10;;
19780;SDS011;10050;55.492;13.506;2023-08-07T08:11:42;0.77;;;0.67;;
19780;SDS011;10050;55.492;13.506;2023-08-07T08:14:09;1.60;;;0.80;;
19780;SDS011;10050;55.492;13.506;2023-08-07T08:16:35;1.10;;;0.77;;
19780;SDS011;10050;55.492;13.506;2023-08-07T08:19:01;0.83;;;0.77;;
19780;SDS011;10050;55.492;13.506;2023-08-07T08:21:28;0.80;;;0.70;;
19780;SDS011;10050;55.492;13.506;2023-08-07T08:23:57;0.60;;;0.60;;
19780;SDS011;10050;55.492;13.506;2023-08-07T08:26:23;2.40;;;0.67;;
19780;SDS011;10050;55.492;13.506;2023-08-07T08:29:08;0.70;;;0.70;;
19780;SDS011;10050;55.492;13.506;2023-08-07T08:31:34;0.77;;;0.50;;
19780;SDS011;10050;55.492;13.506;2023-08-07T08:34:00;0.40;;;0.40;;
19780;SDS011;10050;55.492;13.506;2023-08-07T08:36:26;0.50;;;0.50;;
19780;SDS011;10050;55.492;13.506;2023-08-07T08:38:51;1.27;;;0.67;;
19780;SDS011;10050;55.492;13.506;2023-08-07T08:41:19;0.60;;;0.60;;
19780;SDS011;10050;55.492;13.506;2023-08-07T08:43:46;0.40;;;0.40;;
19780;SDS011;10050;55.492;13.506;2023-08-07T08:46:14;0.50;;;0.50;;
19780;SDS011;10050;55.492;13.506;2023-08-07T08:48:41;0.90;;;0.70;;
19780;SDS011;10050;55.492;13.506;2023-08-07T08:51:12;0.93;;;0.80;;
19780;SDS011;10050;55.492;13.506;2023-08-07T08:53:38;0.47;;;0.40;;
19780;SDS011;10050;55.492;13.506;2023-08-07T08:56:04;1.07;;;0.60;;
19780;SDS011;10050;55.492;13.506;2023-08-07T08:58:31;0.93;;;0.70;;
19780;SDS011;10050;55.492;13.506;2023-08-07T09:00:57;2.00;;;0.77;;
19780;SDS011;10050;55.492;13.506;2023-08-07T09:03:24;0.70;;;0.70;;
19780;SDS011;10050;55.492;13.506;2023-08-07T09:05:51;0.70;;;0.70;;
19780;SDS011;10050;55.492;13.506;2023-08-07T09:08:22;1.53;;;0.90;;
19780;SDS011;10050;55.492;13.506;2023-08-07T09:10:49;0.63;;;0.50;;
19780;SDS011;10050;55.492;13.506;2023-08-07T09:13:16;0.60;;;0.60;;
19780;SDS011;10050;55.492;13.506;2023-08-07T09:15:49;1.17;;;0.60;;
19780;SDS011;10050;55.492;13.506;2023-08-07T09:18:16;1.47;;;0.80;;
19780;SDS011;10050;55.492;13.506;2023-08-07T09:20:44;0.63;;;0.53;;
19780;SDS011;10050;55.492;13.506;2023-08-07T09:23:10;1.03;;;0.80;;
19780;SDS011;10050;55.492;13.506;2023-08-07T09:25:36;2.13;;;0.50;;
19780;SDS011;10050;55.492;13.506;2023-08-07T09:28:02;0.77;;;0.77;;
19780;SDS011;10050;55.492;13.506;2023-08-07T09:30:29;1.60;;;0.97;;
19780;SDS011;10050;55.492;13.506;2023-08-07T09:32:58;0.50;;;0.50;;
19780;SDS011;10050;55.492;13.506;2023-08-07T09:35:25;1.50;;;0.90;;
19780;SDS011;10050;55.492;13.506;2023-08-07T09:37:51;2.23;;;0.80;;
19780;SDS011;10050;55.492;13.506;2023-08-07T09:40:18;1.70;;;1.00;;
19780;SDS011;10050;55.492;13.506;2023-08-07T09:42:49;1.70;;;0.87;;
19780;SDS011;10050;55.492;13.506;2023-08-07T09:45:21;1.33;;;0.90;;
19780;SDS011;10050;55.492;13.506;2023-08-07T09:48:02;1.50;;;1.07;;
19780;SDS011;10050;55.492;13.506;2023-08-07T09:50:30;1.27;;;1.00;;
19780;SDS011;10050;55.492;13.506;2023-08-07T09:52:57;0.80;;;0.80;;
19780;SDS011;10050;55.492;13.506;2023-08-07T09:55:24;1.70;;;0.90;;
19780;SDS011;10050;55.492;13.506;2023-08-07T09:57:51;1.43;;;1.10;;
19780;SDS011;10050;55.492;13.506;2023-08-07T10:00:19;1.33;;;0.87;;
19780;SDS011;10050;55.492;13.506;2023-08-07T10:02:46;1.37;;;1.13;;
19780;SDS011;10050;55.492;13.506;2023-08-07T10:05:15;2.67;;;1.17;;
19780;SDS011;10050;55.492;13.506;2023-08-07T10:07:44;2.03;;;1.20;;
19780;SDS011;10050;55.492;13.506;2023-08-07T10:10:18;2.13;;;1.10;;
19780;SDS011;10050;55.492;13.506;2023-08-07T10:12:48;2.17;;;1.20;;
19780;SDS011;10050;55.492;13.506;2023-08-07T10:15:35;1.03;;;1.03;;
19780;SDS011;10050;55.492;13.506;2023-08-07T10:18:05;1.13;;;1.07;;
19780;SDS011;10050;55.492;13.506;2023-08-07T10:20:32;2.30;;;1.30;;
19780;SDS011;10050;55.492;13.506;2023-08-07T10:23:08;4.90;;;1.13;;
19780;SDS011;10050;55.492;13.506;2023-08-07T10:25:41;2.00;;;1.27;;
19780;SDS011;10050;55.492;13.506;2023-08-07T10:28:10;1.87;;;1.53;;
19780;SDS011;10050;55.492;13.506;2023-08-07T10:30:40;1.47;;;1.03;;
19780;SDS011;10050;55.492;13.506;2023-08-07T10:33:07;0.90;;;0.90;;
19780;SDS011;10050;55.492;13.506;2023-08-07T10:35:46;1.07;;;0.90;;
19780;SDS011;10050;55.492;13.506;2023-08-07T10:38:16;3.17;;;1.17;;
19780;SDS011;10050;55.492;13.506;2023-08-07T10:43:39;1.57;;;1.13;;
19780;SDS011;10050;55.492;13.506;2023-08-07T10:46:20;1.63;;;1.20;;
19780;SDS011;10050;55.492;13.506;2023-08-07T10:48:47;1.97;;;1.40;;
19780;SDS011;10050;55.492;13.506;2023-08-07T10:51:40;2.97;;;1.40;;
19780;SDS011;10050;55.492;13.506;2023-08-07T10:57:11;2.77;;;1.40;;
19780;SDS011;10050;55.492;13.506;2023-08-07T11:02:29;2.30;;;1.50;;
19780;SDS011;10050;55.492;13.506;2023-08-07T11:04:57;1.83;;;1.23;;
19780;SDS011;10050;55.492;13.506;2023-08-07T11:07:28;2.60;;;1.77;;
19780;SDS011;10050;55.492;13.506;2023-08-07T11:09:55;3.40;;;2.07;;
19780;SDS011;10050;55.492;13.506;2023-08-07T11:12:26;4.40;;;2.10;;
19780;SDS011;10050;55.492;13.506;2023-08-07T11:14:57;2.90;;;1.93;;
19780;SDS011;10050;55.492;13.506;2023-08-07T11:17:27;2.53;;;1.90;;
19780;SDS011;10050;55.492;13.506;2023-08-07T11:20:09;4.37;;;2.00;;
19780;SDS011;10050;55.492;13.506;2023-08-07T11:22:37;3.50;;;1.90;;
19780;SDS011;10050;55.492;13.506;2023-08-07T11:25:03;4.03;;;2.00;;
19780;SDS011;10050;55.492;13.506;2023-08-07T11:27:29;4.17;;;2.23;;
19780;SDS011;10050;55.492;13.506;2023-08-07T11:29:55;6.30;;;2.23;;
19780;SDS011;10050;55.492;13.506;2023-08-07T11:32:21;2.67;;;1.87;;
19780;SDS011;10050;55.492;13.506;2023-08-07T11:34:50;1.83;;;1.60;;
19780;SDS011;10050;55.492;13.506;2023-08-07T11:37:17;3.17;;;2.07;;
19780;SDS011;10050;55.492;13.506;2023-08-07T11:39:43;2.80;;;1.60;;
19780;SDS011;10050;55.492;13.506;2023-08-07T11:42:09;4.00;;;2.00;;
19780;SDS011;10050;55.492;13.506;2023-08-07T11:44:35;2.90;;;1.83;;
19780;SDS011;10050;55.492;13.506;2023-08-07T11:47:01;2.40;;;1.80;;
19780;SDS011;10050;55.492;13.506;2023-08-07T11:49:28;2.83;;;1.93;;
19780;SDS011;10050;55.492;13.506;2023-08-07T11:51:54;6.07;;;1.90;;
19780;SDS011;10050;55.492;13.506;2023-08-07T11:54:20;4.13;;;2.10;;
19780;SDS011;10050;55.492;13.506;2023-08-07T11:56:47;2.13;;;1.83;;
19780;SDS011;10050;55.492;13.506;2023-08-07T11:59:16;4.67;;;2.40;;
19780;SDS011;10050;55.492;13.506;2023-08-07T12:01:43;5.50;;;2.33;;
19780;SDS011;10050;55.492;13.506;2023-08-07T12:04:11;5.07;;;2.30;;
19780;SDS011;10050;55.492;13.506;2023-08-07T12:06:41;2.60;;;1.67;;
19780;SDS011;10050;55.492;13.506;2023-08-07T12:09:18;3.67;;;2.00;;
19780;SDS011;10050;55.492;13.506;2023-08-07T12:11:44;3.90;;;2.00;;
19780;SDS011;10050;55.492;13.506;2023-08-07T12:14:13;4.20;;;2.20;;
19780;SDS011;10050;55.492;13.506;2023-08-07T12:16:43;3.67;;;2.33;;
19780;SDS011;10050;55.492;13.506;2023-08-07T12:19:12;5.53;;;2.67;;
19780;SDS011;10050;55.492;13.506;2023-08-07T12:21:40;3.50;;;2.20;;
19780;SDS011;10050;55.492;13.506;2023-08-07T12:24:06;3.83;;;2.57;;
19780;SDS011;10050;55.492;13.506;2023-08-07T12:26:38;6.43;;;2.77;;
19780;SDS011;10050;55.492;13.506;2023-08-07T12:29:11;7.37;;;2.50;;
19780;SDS011;10050;55.492;13.506;2023-08-07T12:31:37;8.43;;;2.67;;
19780;SDS011;10050;55.492;13.506;2023-08-07T12:34:03;4.23;;;2.43;;
19780;SDS011;10050;55.492;13.506;2023-08-07T12:36:29;5.23;;;2.13;;
19780;SDS011;10050;55.492;13.506;2023-08-07T12:38:55;5.00;;;2.37;;
19780;SDS011;10050;55.492;13.506;2023-08-07T12:41:26;5.13;;;2.17;;
19780;SDS011;10050;55.492;13.506;2023-08-07T12:43:53;4.67;;;2.60;;
19780;SDS011;10050;55.492;13.506;2023-08-07T12:46:22;5.47;;;2.50;;
19780;SDS011;10050;55.492;13.506;2023-08-07T12:49:23;5.60;;;2.33;;
19780;SDS011;10050;55.492;13.506;2023-08-07T12:51:49;6.33;;;2.27;;
19780;SDS011;10050;55.492;13.506;2023-08-07T12:54:23;5.40;;;2.60;;
19780;SDS011;10050;55.492;13.506;2023-08-07T12:56:48;3.43;;;2.40;;
19780;SDS011;10050;55.492;13.506;2023-08-07T12:59:17;7.20;;;3.03;;
19780;SDS011;10050;55.492;13.506;2023-08-07T13:01:46;7.53;;;2.90;;
19780;SDS011;10050;55.492;13.506;2023-08-07T13:04:12;7.30;;;3.10;;
19780;SDS011;10050;55.492;13.506;2023-08-07T13:06:40;7.40;;;2.60;;
19780;SDS011;10050;55.492;13.506;2023-08-07T13:09:08;10.17;;;3.13;;
19780;SDS011;10050;55.492;13.506;2023-08-07T13:11:34;7.57;;;2.90;;
19780;SDS011;10050;55.492;13.506;2023-08-07T13:14:01;10.47;;;3.73;;
19780;SDS011;10050;55.492;13.506;2023-08-07T13:16:28;12.27;;;3.37;;
19780;SDS011;10050;55.492;13.506;2023-08-07T13:18:54;14.73;;;3.73;;
19780;SDS011;10050;55.492;13.506;2023-08-07T13:21:22;8.73;;;3.17;;
19780;SDS011;10050;55.492;13.506;2023-08-07T13:23:48;7.50;;;3.13;;
19780;SDS011;10050;55.492;13.506;2023-08-07T13:26:14;8.17;;;3.00;;
19780;SDS011;10050;55.492;13.506;2023-08-07T13:28:43;7.60;;;3.10;;
19780;SDS011;10050;55.492;13.506;2023-08-07T13:31:11;9.53;;;3.07;;
19780;SDS011;10050;55.492;13.506;2023-08-07T13:33:37;9.03;;;3.43;;
19780;SDS011;10050;55.492;13.506;2023-08-07T13:36:05;8.20;;;3.47;;
19780;SDS011;10050;55.492;13.506;2023-08-07T13:38:34;6.97;;;3.70;;
19780;SDS011;10050;55.492;13.506;2023-08-07T13:40:59;7.53;;;3.50;;
19780;SDS011;10050;55.492;13.506;2023-08-07T13:43:28;7.97;;;3.50;;
19780;SDS011;10050;55.492;13.506;2023-08-07T13:45:55;7.47;;;3.13;;
19780;SDS011;10050;55.492;13.506;2023-08-07T13:48:20;6.43;;;2.77;;
19780;SDS011;10050;55.492;13.506;2023-08-07T13:50:52;10.07;;;3.43;;
19780;SDS011;10050;55.492;13.506;2023-08-07T13:53:21;11.60;;;3.60;;
19780;SDS011;10050;55.492;13.506;2023-08-07T13:55:54;10.43;;;3.77;;
19780;SDS011;10050;55.492;13.506;2023-08-07T13:58:19;10.77;;;3.43;;
19780;SDS011;10050;55.492;13.506;2023-08-07T14:00:45;11.73;;;3.70;;
19780;SDS011;10050;55.492;13.506;2023-08-07T14:03:13;6.73;;;3.37;;
19780;SDS011;10050;55.492;13.506;2023-08-07T14:05:43;11.93;;;3.80;;
19780;SDS011;10050;55.492;13.506;2023-08-07T14:08:10;9.80;;;3.60;;
19780;SDS011;10050;55.492;13.506;2023-08-07T14:10:36;10.47;;;3.53;;
19780;SDS011;10050;55.492;13.506;2023-08-07T14:13:09;8.87;;;3.00;;
19780;SDS011;10050;55.492;13.506;2023-08-07T14:15:50;10.77;;;4.00;;
19780;SDS011;10050;55.492;13.506;2023-08-07T14:18:27;11.07;;;3.67;;
19780;SDS011;10050;55.492;13.506;2023-08-07T14:21:03;12.10;;;3.70;;
19780;SDS011;10050;55.492;13.506;2023-08-07T14:23:32;10.47;;;3.57;;
19780;SDS011;10050;55.492;13.506;2023-08-07T14:25:59;7.40;;;3.37;;
19780;SDS011;10050;55.492;13.506;2023-08-07T14:28:29;8.70;;;3.63;;
19780;SDS011;10050;55.492;13.506;2023-08-07T14:31:05;14.37;;;4.63;;
19780;SDS011;10050;55.492;13.506;2023-08-07T14:33:37;13.67;;;4.23;;
19780;SDS011;10050;55.492;13.506;2023-08-07T14:36:09;11.37;;;3.73;;
19780;SDS011;10050;55.492;13.506;2023-08-07T14:38:40;10.93;;;3.40;;
19780;SDS011;10050;55.492;13.506;2023-08-07T14:41:09;13.23;;;4.20;;
19780;SDS011;10050;55.492;13.506;2023-08-07T14:43:37;13.30;;;3.80;;
19780;SDS011;10050;55.492;13.506;2023-08-07T14:46:04;8.83;;;4.00;;
19780;SDS011;10050;55.492;13.506;2023-08-07T14:49:03;13.20;;;4.50;;
19780;SDS011;10050;55.492;13.506;2023-08-07T14:51:32;11.63;;;3.90;;
19780;SDS011;10050;55.492;13.506;2023-08-07T14:54:00;14.20;;;4.63;;
19780;SDS011;10050;55.492;13.506;2023-08-07T14:56:29;14.97;;;3.70;;
19780;SDS011;10050;55.492;13.506;2023-08-07T14:58:55;7.13;;;3.63;;
19780;SDS011;10050;55.492;13.506;2023-08-07T15:01:40;16.07;;;4.20;;
19780;SDS011;10050;55.492;13.506;2023-08-07T15:04:06;13.87;;;4.07;;